Time;durP1;ratioP1;P1;durP2;ratioP2;P2;SDS_P1;SDS_P2;PMS_P1;PMS_P2;Temp;Humidity;BMP_temperature;BMP_pressure;BME280_temperature;BME280_humidity;BME280_pressure;Samples;Min_cycle;Max_cycle;Signal;HPM_P1;HPM_P2
2022/05/26 00:01:10;;;;;;;19.30;4.38;;;;;;;13.62;100.00;101565.69;4991298;28;20038;-31
2022/05/26 00:03:46;;;;;;;21.40;4.18;;;;;;;13.63;100.00;101570.16;4988070;28;20138;-30
2022/05/26 00:06:15;;;;;;;22.80;4.38;;;;;;;13.64;100.00;101569.88;4991725;28;20050;-28
2022/05/26 00:08:44;;;;;;;22.35;4.43;;;;;;;13.65;100.00;101562.28;4992077;28;20043;-34
2022/05/26 00:11:15;;;;;;;19.63;4.40;;;;;;;13.64;100.00;101561.44;4992218;28;20401;-27
2022/05/26 00:13:44;;;;;;;22.48;4.15;;;;;;;13.62;100.00;101560.91;4991572;28;20061;-28
2022/05/26 00:16:13;;;;;;;25.45;4.10;;;;;;;13.61;100.00;101564.03;4991362;28;20389;-31
2022/05/26 00:18:43;;;;;;;19.83;4.05;;;;;;;13.58;100.00;101570.25;4992653;28;20046;-27
2022/05/26 00:21:11;;;;;;;18.33;3.88;;;;;;;13.57;100.00;101582.63;4991370;28;20408;-31
2022/05/26 00:23:39;;;;;;;19.50;3.53;;;;;;;13.54;100.00;101574.81;4992126;28;20125;-31
2022/05/26 00:26:07;;;;;;;23.15;4.30;;;;;;;13.53;100.00;101587.97;4992425;28;20041;-34
2022/05/26 00:28:36;;;;;;;22.45;3.97;;;;;;;13.52;100.00;101588.28;4991758;28;20056;-34
2022/05/26 00:31:03;;;;;;;21.75;3.72;;;;;;;13.49;100.00;101577.66;4991926;28;20042;-31
2022/05/26 00:33:32;;;;;;;21.17;3.58;;;;;;;13.48;100.00;101584.41;4992481;28;20101;-31
2022/05/26 00:36:03;;;;;;;19.10;3.58;;;;;;;13.48;100.00;101582.44;4992335;28;20473;-34
2022/05/26 00:38:31;;;;;;;20.92;3.70;;;;;;;13.45;100.00;101586.66;4991868;28;20050;-33
2022/05/26 00:41:02;;;;;;;17.58;3.38;;;;;;;13.43;100.00;101590.91;4992467;28;20041;-29
2022/05/26 00:43:30;;;;;;;20.83;3.80;;;;;;;13.42;100.00;101589.25;4992571;28;20496;-29
2022/05/26 00:46:06;;;;;;;22.25;3.60;;;;;;;13.42;100.00;101595.69;4991673;28;20406;-29
2022/05/26 00:48:40;;;;;;;16.67;2.95;;;;;;;13.42;100.00;101601.28;4992419;28;20514;-33
2022/05/26 00:51:11;;;;;;;18.90;3.72;;;;;;;13.43;100.00;101599.31;4991553;28;20064;-32
2022/05/26 00:53:44;;;;;;;15.75;3.08;;;;;;;13.43;100.00;101600.16;4990271;28;20049;-30
2022/05/26 00:56:19;;;;;;;12.90;2.88;;;;;;;13.44;100.00;101596.22;4992312;28;20039;-31
2022/05/26 00:58:51;;;;;;;15.27;2.75;;;;;;;13.43;100.00;101602.13;4991494;28;20046;-31
2022/05/26 01:01:20;;;;;;;;;;;;;;;13.35;100.00;101609.25;4992600;28;20054;-33
2022/05/26 01:03:54;;;;;;;10.38;2.17;;;;;;;13.32;100.00;101612.66;4992191;28;19926;-28
2022/05/26 01:06:25;;;;;;;11.23;2.10;;;;;;;13.34;100.00;101606.75;4991426;28;20050;-33
2022/05/26 01:08:57;;;;;;;12.68;2.22;;;;;;;13.34;100.00;101609.53;4992114;28;20049;-33
2022/05/26 01:11:27;;;;;;;15.98;2.55;;;;;;;13.34;100.00;101607.56;4981032;28;20048;-27
2022/05/26 01:13:59;;;;;;;8.70;1.85;;;;;;;13.34;100.00;101609.53;4990062;28;20054;-35
2022/05/26 01:16:37;;;;;;;10.15;1.90;;;;;;;13.33;100.00;101613.47;4991893;28;20430;-29
2022/05/26 01:19:24;;;;;;;8.60;1.65;;;;;;;13.29;100.00;101616.03;4991281;28;20046;-32
2022/05/26 01:21:58;;;;;;;8.95;1.60;;;;;;;13.27;100.00;101621.09;4980751;28;20496;-31
2022/05/26 01:24:43;;;;;;;11.82;2.20;;;;;;;13.26;100.00;101610.19;4991764;28;20050;-28
2022/05/26 01:27:29;;;;;;;11.50;1.88;;;;;;;13.26;100.00;101611.03;4982513;28;20393;-33
2022/05/26 01:30:16;;;;;;;15.27;1.83;;;;;;;13.24;100.00;101613.28;4991600;28;20057;-26
2022/05/26 01:33:15;;;;;;;8.30;1.60;;;;;;;13.25;100.00;101619.72;4991590;28;20053;-33
2022/05/26 01:35:54;;;;;;;9.18;1.50;;;;;;;13.26;100.00;101629.81;4990794;28;20503;-30
2022/05/26 01:38:33;;;;;;;8.85;1.38;;;;;;;13.28;100.00;101622.78;4991667;28;20050;-34
2022/05/26 01:41:12;;;;;;;10.70;1.73;;;;;;;13.30;100.00;101636.50;4990708;28;20048;-32
2022/05/26 01:43:48;;;;;;;11.65;1.40;;;;;;;13.32;100.00;101640.69;4990276;28;20062;-36
2022/05/26 01:46:21;;;;;;;20.55;2.40;;;;;;;13.34;100.00;101646.81;4991195;28;20049;-25
2022/05/26 01:48:57;;;;;;;10.43;2.38;;;;;;;13.35;100.00;101645.69;4991393;28;20046;-32
2022/05/26 01:51:30;;;;;;;9.40;1.88;;;;;;;13.36;100.00;101650.16;4991515;28;20053;-34
2022/05/26 01:54:10;;;;;;;14.50;2.22;;;;;;;13.41;100.00;101660.47;4991576;28;20451;-32
2022/05/26 01:56:46;;;;;;;9.30;1.90;;;;;;;13.44;100.00;101662.66;4990662;28;20397;-34
2022/05/26 01:59:18;;;;;;;9.32;2.00;;;;;;;13.47;100.00;101664.03;4991373;28;20054;-30
2022/05/26 02:01:51;;;;;;;10.05;2.20;;;;;;;13.47;100.00;101658.44;4990479;28;20050;-30
2022/05/26 02:04:24;;;;;;;9.07;2.03;;;;;;;13.48;100.00;101665.72;4991298;28;20168;-31
2022/05/26 02:06:57;;;;;;;13.65;2.08;;;;;;;13.45;100.00;101658.72;4991487;28;20046;-31
2022/05/26 02:09:28;;;;;;;9.73;1.65;;;;;;;13.44;100.00;101662.66;4990374;28;20053;-31
2022/05/26 02:12:02;;;;;;;13.07;2.33;;;;;;;13.40;100.00;101664.41;4991430;28;20050;-32
2022/05/26 02:14:34;;;;;;;9.00;1.70;;;;;;;13.36;100.00;101664.19;4990917;28;20050;-29
2022/05/26 02:17:08;;;;;;;7.10;1.40;;;;;;;13.34;100.00;101663.66;4990269;28;20144;-31
2022/05/26 02:19:43;;;;;;;11.95;2.10;;;;;;;13.29;100.00;101672.09;4991191;28;20042;-34
2022/05/26 02:22:18;;;;;;;6.18;1.13;;;;;;;13.24;100.00;101663.75;4991604;28;20117;-31
2022/05/26 02:24:53;;;;;;;4.97;1.17;;;;;;;13.20;100.00;101671.06;4993188;28;20050;-32
2022/05/26 02:27:21;;;;;;;5.30;1.20;;;;;;;13.17;100.00;101668.06;4995143;28;20065;-37
2022/05/26 02:29:51;;;;;;;6.65;1.20;;;;;;;13.17;100.00;101668.88;4994585;28;20042;-30
2022/05/26 02:32:23;;;;;;;8.07;1.58;;;;;;;13.17;100.00;101673.66;4994914;28;20042;-31
2022/05/26 02:34:55;;;;;;;6.28;1.05;;;;;;;13.15;100.00;101667.47;4995348;28;20077;-26
2022/05/26 02:37:25;;;;;;;6.65;1.40;;;;;;;13.11;100.00;101661.63;4994684;28;20046;-29
2022/05/26 02:39:53;;;;;;;6.22;1.15;;;;;;;13.11;100.00;101672.84;4994835;28;20054;-32
2022/05/26 02:42:24;;;;;;;7.55;1.00;;;;;;;13.10;100.00;101673.97;4994738;28;20109;-34
2022/05/26 02:44:53;;;;;;;7.55;1.08;;;;;;;13.08;100.00;101676.22;4993899;28;20045;-33
2022/05/26 02:47:37;;;;;;;5.20;1.10;;;;;;;13.09;100.00;101689.09;4994646;28;20069;-28
2022/05/26 02:50:19;;;;;;;8.65;1.10;;;;;;;13.09;100.00;101691.91;4994693;28;20050;-31
2022/05/26 02:53:01;;;;;;;5.85;1.45;;;;;;;13.11;100.00;101689.66;4993889;28;20050;-33
2022/05/26 02:55:40;;;;;;;4.80;0.93;;;;;;;13.11;100.00;101692.44;4983564;28;20049;-28
2022/05/26 02:58:14;;;;;;;5.80;1.20;;;;;;;13.13;100.00;101700.56;4993608;28;20065;-30
2022/05/26 03:00:51;;;;;;;5.55;0.80;;;;;;;13.14;100.00;101705.03;4994746;28;20046;-34
2022/05/26 03:03:26;;;;;;;7.40;1.17;;;;;;;13.14;100.00;101700.28;4994564;28;20050;-28
2022/05/26 03:06:05;;;;;;;6.22;1.33;;;;;;;13.15;100.00;101696.38;4993647;28;20034;-30
2022/05/26 03:08:37;;;;;;;6.97;1.10;;;;;;;13.12;100.00;101702.53;4994407;28;20046;-28
2022/05/26 03:11:07;;;;;;;9.32;1.23;;;;;;;13.09;100.00;101703.97;4994292;28;20129;-35
2022/05/26 03:13:35;;;;;;;7.70;1.10;;;;;;;13.07;100.00;101705.38;4992984;28;20105;-30
2022/05/26 03:16:04;;;;;;;8.88;1.58;;;;;;;13.05;100.00;101704.84;4993353;28;20062;-29
2022/05/26 03:18:32;;;;;;;7.38;1.52;;;;;;;13.05;100.00;101714.06;4992620;28;20133;-28
2022/05/26 03:21:04;;;;;;;6.60;1.02;;;;;;;13.07;100.00;101713.78;4991711;28;20195;-26
2022/05/26 03:23:32;;;;;;;5.72;1.00;;;;;;;13.05;100.00;101716.88;4992599;28;20046;-31
2022/05/26 03:26:00;;;;;;;9.45;1.60;;;;;;;13.06;100.00;101724.16;4992475;28;20046;-30
2022/05/26 03:28:30;;;;;;;4.68;1.00;;;;;;;13.07;100.00;101714.63;4991748;28;20507;-33
2022/05/26 03:30:58;;;;;;;7.88;1.13;;;;;;;13.07;100.00;101717.41;4992501;28;20061;-30
2022/05/26 03:40:45;;;;;;;4.97;1.10;;;;;;;13.06;100.00;101720.50;4991684;28;20069;-34
2022/05/26 03:41:46;;;;;;;7.47;1.00;;;;;;;13.04;100.00;101728.38;4988584;28;20126;-30
2022/05/26 03:44:15;;;;;;;7.20;1.20;;;;;;;13.08;100.00;101726.66;4991691;28;20058;-31
2022/05/26 03:46:42;;;;;;;4.43;0.85;;;;;;;13.11;100.00;101735.31;4991483;28;20058;-28
2022/05/26 03:49:10;;;;;;;7.68;1.08;;;;;;;13.14;100.00;101736.69;4990657;28;20062;-33
2022/05/26 03:51:39;;;;;;;9.05;1.10;;;;;;;13.16;100.00;101736.44;4991203;28;20053;-33
2022/05/26 03:54:07;;;;;;;7.40;1.10;;;;;;;13.17;100.00;101743.72;4991608;28;20043;-31
2022/05/26 03:56:34;;;;;;;6.93;1.08;;;;;;;13.19;100.00;101747.06;4991420;28;20042;-30
2022/05/26 03:59:02;;;;;;;9.75;1.77;;;;;;;13.20;100.00;101740.31;4992299;28;20046;-33
2022/05/26 04:01:30;;;;;;;8.57;1.73;;;;;;;13.22;100.00;101746.44;4990943;28;20443;-26
2022/05/26 04:03:58;;;;;;;4.78;1.05;;;;;;;13.24;100.00;101738.59;4992075;28;20050;-28
2022/05/26 04:06:28;;;;;;;5.28;1.00;;;;;;;13.25;100.00;101743.91;4991473;28;20128;-34
2022/05/26 04:08:57;;;;;;;5.00;1.20;;;;;;;13.27;100.00;101744.44;4991234;28;20046;-33
2022/05/26 04:11:25;;;;;;;3.13;1.00;;;;;;;13.28;100.00;101751.72;4991868;28;20050;-33
2022/05/26 04:13:53;;;;;;;5.75;1.25;;;;;;;13.29;100.00;101753.41;4992216;28;20046;-29
2022/05/26 04:16:21;;;;;;;7.05;0.95;;;;;;;13.32;100.00;101760.38;4955799;28;1027919;-36
2022/05/26 04:18:52;;;;;;;6.85;1.23;;;;;;;13.35;100.00;101762.59;4993028;28;20409;-32
2022/05/26 04:21:21;;;;;;;7.85;1.15;;;;;;;13.36;100.00;101767.91;4992774;28;20050;-32
2022/05/26 04:23:48;;;;;;;9.15;1.40;;;;;;;13.36;100.00;101770.72;4990968;28;20361;-35
2022/05/26 04:26:17;;;;;;;7.63;1.23;;;;;;;13.37;100.00;101769.59;4992808;28;20436;-26
2022/05/26 04:28:45;;;;;;;4.45;1.20;;;;;;;13.37;100.00;101766.78;4992659;28;20395;-27
2022/05/26 04:31:13;;;;;;;6.15;1.10;;;;;;;13.37;100.00;101769.59;4989670;28;20046;-39
2022/05/26 04:33:41;;;;;;;7.15;1.15;;;;;;;13.36;100.00;101767.91;4991599;28;20145;-30
2022/05/26 04:36:08;;;;;;;5.85;1.13;;;;;;;13.34;100.00;101774.94;4992304;28;20045;-34
2022/05/26 04:38:36;;;;;;;6.60;1.45;;;;;;;13.32;100.00;101777.19;4990735;28;20523;-32
2022/05/26 04:41:07;;;;;;;5.28;1.00;;;;;;;13.32;100.00;101788.41;4991946;28;20100;-27
2022/05/26 04:43:36;;;;;;;7.35;1.45;;;;;;;13.31;100.00;101789.53;4990585;28;20061;-26
2022/05/26 04:46:04;;;;;;;5.72;0.98;;;;;;;13.33;100.00;101796.53;4990626;28;20050;-32
2022/05/26 04:48:32;;;;;;;5.80;1.42;;;;;;;13.34;100.00;101801.00;4991075;28;20053;-30
2022/05/26 04:51:01;;;;;;;4.28;1.00;;;;;;;13.37;100.00;101803.22;4988837;28;20046;-32
2022/05/26 04:53:29;;;;;;;6.85;1.40;;;;;;;13.42;100.00;101799.50;4991002;28;20248;-33
2022/05/26 04:55:57;;;;;;;5.53;1.30;;;;;;;13.48;100.00;101809.56;4990967;28;20046;-30
2022/05/26 04:58:24;;;;;;;8.85;1.75;;;;;;;13.52;100.00;101805.03;4990501;28;20058;-32
2022/05/26 05:00:53;;;;;;;8.35;1.83;;;;;;;13.54;100.00;101804.75;4991057;28;20062;-35
2022/05/26 05:03:22;;;;;;;6.70;1.15;;;;;;;13.57;100.00;101809.75;4991211;28;20489;-27
2022/05/26 05:05:49;;;;;;;6.18;1.20;;;;;;;13.59;100.00;101813.09;4990420;28;20057;-26
2022/05/26 05:08:17;;;;;;;7.00;1.10;;;;;;;13.59;100.00;101821.53;4990841;28;20050;-28
2022/05/26 05:10:45;;;;;;;8.05;1.40;;;;;;;13.60;100.00;101834.38;4990993;28;20518;-34
2022/05/26 05:13:14;;;;;;;6.53;1.27;;;;;;;13.63;100.00;101825.38;4990106;28;20408;-33
2022/05/26 05:15:46;;;;;;;6.00;1.33;;;;;;;13.67;100.00;101832.91;4990480;28;20051;-37
2022/05/26 05:18:15;;;;;;;6.85;1.20;;;;;;;13.70;100.00;101837.94;4991012;28;20436;-34
2022/05/26 05:20:43;;;;;;;6.47;1.10;;;;;;;13.73;100.00;101840.16;4990105;28;20058;-33
2022/05/26 05:23:13;;;;;;;5.60;1.45;;;;;;;13.79;100.00;101847.34;4990757;28;20401;-35
2022/05/26 05:25:44;;;;;;;8.27;1.30;;;;;;;13.86;100.00;101838.59;4990193;28;20058;-35
2022/05/26 05:28:18;;;;;;;7.32;1.38;;;;;;;13.92;100.00;101851.44;4990738;28;20385;-31
2022/05/26 05:30:51;;;;;;;5.70;1.10;;;;;;;13.98;100.00;101841.00;4990480;28;20061;-30
2022/05/26 05:33:24;;;;;;;6.63;1.00;;;;;;;14.03;100.00;101846.53;4989860;28;20056;-29
2022/05/26 05:35:59;;;;;;;3.88;1.10;;;;;;;14.04;100.00;101851.88;4990507;28;20152;-26
2022/05/26 05:38:27;;;;;;;6.80;1.60;;;;;;;14.06;100.00;101846.78;4991558;28;20153;-31
2022/05/26 05:40:55;;;;;;;6.55;1.20;;;;;;;14.08;100.00;101858.56;4989293;28;20404;-32
2022/05/26 05:43:23;;;;;;;5.95;1.23;;;;;;;14.11;100.00;101855.16;4990477;28;20474;-30
2022/05/26 05:45:50;;;;;;;5.35;1.08;;;;;;;14.16;100.00;101851.47;4990773;28;20411;-38
2022/05/26 05:48:20;;;;;;;7.43;1.40;;;;;;;14.23;100.00;101860.34;4990371;28;20090;-30
2022/05/26 05:50:52;;;;;;;6.80;1.10;;;;;;;14.32;100.00;101854.91;4990628;28;20046;-30
2022/05/26 05:53:20;;;;;;;8.23;1.13;;;;;;;14.37;100.00;101852.88;4990604;28;20046;-31
2022/05/26 05:55:47;;;;;;;7.90;1.20;;;;;;;14.43;100.00;101856.47;4990339;28;20054;-31
2022/05/26 05:58:15;;;;;;;7.70;1.42;;;;;;;14.49;100.00;101858.09;4990653;28;20507;-29
2022/05/26 06:00:43;;;;;;;11.05;1.30;;;;;;;14.55;100.00;101868.13;4991245;28;20048;-32
2022/05/26 06:03:11;;;;;;;6.70;1.30;;;;;;;14.61;100.00;101869.69;4990139;28;20129;-29
2022/05/26 06:05:39;;;;;;;7.90;1.60;;;;;;;14.69;100.00;101873.81;4991332;28;20080;-26
2022/05/26 06:08:09;;;;;;;7.10;1.38;;;;;;;14.73;100.00;101877.72;4990285;28;20042;-34
2022/05/26 06:10:37;;;;;;;4.90;1.33;;;;;;;14.72;100.00;101876.88;4990972;28;20154;-33
2022/05/26 06:13:05;;;;;;;6.65;1.30;;;;;;;14.72;100.00;101873.22;4990697;28;20052;-28
2022/05/26 06:15:33;;;;;;;8.05;2.20;;;;;;;14.75;100.00;101875.44;4990343;28;20054;-30
2022/05/26 06:18:01;;;;;;;6.40;1.30;;;;;;;14.80;100.00;101883.75;4990431;28;20093;-32
2022/05/26 06:20:29;;;;;;;8.63;1.95;;;;;;;14.83;100.00;101883.16;4990550;28;20105;-32
2022/05/26 06:22:56;;;;;;;4.47;1.13;;;;;;;14.83;100.00;101877.53;4988929;28;20061;-32
2022/05/26 06:25:25;;;;;;;6.95;1.30;;;;;;;14.86;100.00;101884.53;4990842;28;20053;-34
2022/05/26 06:30:39;;;;;;;6.28;1.40;;;;;;;14.91;100.00;101893.75;4990005;28;20050;-32
2022/05/26 06:38:41;;;;;;;8.77;1.58;;;;;;;15.05;100.00;101907.84;4985937;28;20049;-34
2022/05/26 06:43:57;;;;;;;7.90;1.77;;;;;;;15.62;100.00;101906.69;4986422;28;20042;-37
2022/05/26 06:46:25;;;;;;;7.05;1.50;;;;;;;16.17;100.00;101915.28;4990654;28;20061;-26
2022/05/26 06:48:53;;;;;;;8.55;1.50;;;;;;;16.77;100.00;101910.38;4990748;28;20047;-33
2022/05/26 06:51:24;;;;;;;7.18;1.80;;;;;;;17.37;100.00;101907.28;4989600;28;20065;-32
2022/05/26 06:53:52;;;;;;;4.93;1.20;;;;;;;17.90;100.00;101913.00;4987454;28;20086;-30
2022/05/26 06:56:21;;;;;;;8.45;2.00;;;;;;;18.62;100.00;101911.00;4980358;28;20046;-28
2022/05/26 06:58:49;;;;;;;4.38;1.33;;;;;;;19.06;100.00;101913.59;4989742;28;20519;-27
2022/05/26 07:01:17;;;;;;;7.95;1.55;;;;;;;19.38;100.00;101906.63;4990265;28;20034;-29
2022/05/26 07:03:45;;;;;;;5.95;1.30;;;;;;;19.77;100.00;101916.97;4990198;28;20074;-32
2022/05/26 07:06:14;;;;;;;8.57;2.05;;;;;;;20.16;100.00;101917.84;4989651;28;20129;-36
2022/05/26 07:08:43;;;;;;;5.72;1.20;;;;;;;20.23;98.50;101916.13;4990407;28;20057;-32
2022/05/26 07:11:10;;;;;;;7.05;1.63;;;;;;;20.29;97.28;101916.78;4993092;28;20050;-32
2022/05/26 07:13:39;;;;;;;8.70;1.70;;;;;;;20.50;98.22;101912.06;4993926;28;20049;-31
2022/05/26 07:16:10;;;;;;;6.38;1.42;;;;;;;20.70;94.18;101913.28;4989470;28;20062;-31
2022/05/26 07:18:38;;;;;;;8.07;1.17;;;;;;;20.88;93.52;101925.38;4982506;28;20129;-30
2022/05/26 07:21:08;;;;;;;8.50;1.67;;;;;;;21.29;92.83;101928.28;4993857;28;20054;-31
2022/05/26 07:23:35;;;;;;;5.82;1.00;;;;;;;21.61;90.87;101920.13;4992628;28;20042;-28
2022/05/26 07:26:05;;;;;;;5.32;1.30;;;;;;;21.86;88.04;101918.22;4988891;28;20069;-33
2022/05/26 07:28:33;;;;;;;6.53;1.60;;;;;;;22.02;86.76;101921.25;4990507;28;20050;-38
2022/05/26 07:31:03;;;;;;;7.82;1.50;;;;;;;22.28;86.22;101922.63;4992754;28;20042;-28
2022/05/26 07:33:30;;;;;;;7.70;1.20;;;;;;;22.56;84.23;101930.50;4991687;28;20069;-34
2022/05/26 07:35:58;;;;;;;5.75;1.27;;;;;;;22.77;81.55;101927.53;4992716;28;20050;-28
2022/05/26 07:41:19;;;;;;;6.03;1.30;;;;;;;23.07;78.63;101943.19;4991756;28;20050;-29
2022/05/26 07:43:52;;;;;;;5.40;1.27;;;;;;;23.07;76.99;101946.03;4993012;28;20046;-31
2022/05/26 07:46:23;;;;;;;6.65;1.27;;;;;;;23.27;77.35;101945.03;4993159;28;20057;-29
2022/05/26 07:48:51;;;;;;;5.03;1.15;;;;;;;23.18;74.17;101926.44;4993439;28;20551;-28
2022/05/26 07:51:21;;;;;;;5.93;1.60;;;;;;;22.71;75.16;101932.63;4992360;28;20058;-27
2022/05/26 07:53:50;;;;;;;5.90;1.30;;;;;;;22.69;75.59;101938.66;4991877;28;20049;-28
2022/05/26 07:56:20;;;;;;;4.75;1.30;;;;;;;22.76;75.82;101934.41;4993241;28;20050;-29
2022/05/26 07:58:48;;;;;;;4.53;1.15;;;;;;;23.20;74.42;101933.41;4993098;28;20569;-35
2022/05/26 08:01:16;;;;;;;4.18;1.00;;;;;;;23.41;73.00;101949.50;4992747;28;20119;-30
2022/05/26 08:03:45;;;;;;;7.13;1.25;;;;;;;23.70;72.13;101952.06;4992468;28;20145;-31
2022/05/26 08:06:15;;;;;;;3.67;1.20;;;;;;;23.78;69.57;101958.81;4991540;28;20051;-29
2022/05/26 08:08:42;;;;;;;4.93;1.55;;;;;;;23.84;68.70;101968.75;4992400;28;20057;-27
2022/05/26 08:11:10;;;;;;;7.40;1.23;;;;;;;24.04;68.06;101991.34;4992914;28;20058;-33
2022/05/26 08:13:38;;;;;;;5.55;1.30;;;;;;;23.98;65.84;101992.78;4991532;28;20050;-29
2022/05/26 08:16:06;;;;;;;6.32;1.25;;;;;;;23.31;66.36;101985.03;4991878;28;20050;-29
2022/05/26 08:18:35;;;;;;;3.17;1.02;;;;;;;22.86;69.74;101974.63;4992842;28;20061;-30
2022/05/26 08:21:10;;;;;;;4.50;1.20;;;;;;;22.89;71.01;101979.59;4991661;28;20130;-28
2022/05/26 08:23:39;;;;;;;5.55;1.42;;;;;;;23.10;70.27;101990.03;4992200;28;20073;-30
2022/05/26 08:26:07;;;;;;;4.90;1.23;;;;;;;23.10;67.22;101984.34;4992828;28;20038;-37
2022/05/26 08:28:34;;;;;;;6.40;1.40;;;;;;;22.96;68.49;101988.41;4981020;28;20051;-29
2022/05/26 08:31:02;;;;;;;8.25;1.30;;;;;;;23.11;68.06;101983.16;4981757;28;20097;-29
2022/05/26 08:33:30;;;;;;;6.13;1.55;;;;;;;23.48;67.24;101983.91;4992388;28;20038;-29
2022/05/26 08:36:02;;;;;;;6.78;1.48;;;;;;;23.74;65.40;101995.75;4992003;28;20042;-38
2022/05/26 08:38:31;;;;;;;;;;;;;;;24.12;63.62;102002.97;4989968;28;20066;-30
2022/05/26 08:41:01;;;;;;;6.28;1.30;;;;;;;24.64;63.33;102011.34;4992486;28;19933;-35
2022/05/26 08:43:36;;;;;;;5.47;1.33;;;;;;;24.81;60.27;102013.00;4990680;28;20042;-30
2022/05/26 08:46:08;;;;;;;4.90;1.40;;;;;;;24.55;59.89;102005.84;4992475;28;20089;-29
2022/05/26 08:48:57;;;;;;;4.70;1.02;;;;;;;24.26;57.52;102015.63;4991825;28;20042;-33
2022/05/26 08:51:42;;;;;;;4.82;1.23;;;;;;;24.07;59.98;102006.06;4987856;28;20057;-36
2022/05/26 08:54:19;;;;;;;5.05;1.42;;;;;;;24.27;63.10;102003.03;4989461;28;20551;-34
2022/05/26 08:56:48;;;;;;;5.63;1.45;;;;;;;24.44;61.67;101983.91;4991387;28;20061;-34
2022/05/26 08:59:19;;;;;;;6.28;1.52;;;;;;;24.24;60.49;101985.81;4991940;28;20046;-32
2022/05/26 09:01:47;;;;;;;8.43;1.42;;;;;;;23.88;60.92;101986.78;4991201;28;20404;-29
2022/05/26 09:04:14;;;;;;;8.18;1.77;;;;;;;23.73;62.91;101996.13;4990876;28;20045;-34
2022/05/26 09:15:16;;;;;;;5.63;1.25;;;;;;;24.12;60.54;102020.91;4982107;28;20042;-31
2022/05/26 09:17:44;;;;;;;4.07;1.15;;;;;;;24.26;62.53;102009.91;4991764;28;20121;-29
2022/05/26 09:20:31;;;;;;;5.75;1.40;;;;;;;24.50;58.17;102028.94;4991406;28;20535;-29
2022/05/26 09:23:24;;;;;;;4.10;1.35;;;;;;;24.30;59.54;102025.13;4981970;28;20257;-28
2022/05/26 09:25:56;;;;;;;5.65;1.30;;;;;;;24.43;60.13;102030.75;4965162;28;20038;-38
2022/05/26 09:28:28;;;;;;;;;;;;;;;24.29;56.23;102026.31;4992147;28;20141;-29
2022/05/26 09:30:56;;;;;;;7.13;1.60;;;;;;;24.37;60.27;102028.19;4991639;28;20402;-38
2022/05/26 09:33:30;;;;;;;6.93;1.55;;;;;;;24.27;60.50;102019.31;4990514;28;20488;-30
2022/05/26 09:36:15;;;;;;;6.35;1.63;;;;;;;24.22;56.46;102026.06;4991180;28;20042;-29
2022/05/26 09:38:44;;;;;;;6.00;1.42;;;;;;;24.18;60.49;102030.84;4991403;28;20046;-31
2022/05/26 09:41:17;;;;;;;6.20;1.40;;;;;;;24.31;60.14;102037.38;4990583;28;20046;-30
2022/05/26 09:43:50;;;;;;;7.10;1.60;;;;;;;24.34;58.98;102039.50;4991430;28;20042;-37
2022/05/26 09:46:21;;;;;;;8.18;1.58;;;;;;;24.17;60.86;102022.69;4990545;28;20073;-29
2022/05/26 09:48:54;;;;;;;6.78;1.42;;;;;;;24.31;59.68;102035.34;4991386;28;20369;-29
2022/05/26 09:51:24;;;;;;;6.80;1.40;;;;;;;24.10;59.60;102029.00;4980805;28;20038;-29
2022/05/26 09:53:54;;;;;;;7.77;1.53;;;;;;;23.64;59.35;102036.16;4990355;28;20488;-35
2022/05/26 09:56:39;;;;;;;7.07;1.50;;;;;;;23.14;59.05;102033.72;4991168;28;20297;-33
2022/05/26 09:59:24;;;;;;;8.35;1.90;;;;;;;23.22;61.67;102046.97;4987595;28;20054;-36
2022/05/26 10:01:57;;;;;;;9.35;1.73;;;;;;;23.45;61.14;102044.47;4981249;28;20412;-28
2022/05/26 10:04:43;;;;;;;7.93;1.75;;;;;;;23.71;61.88;102050.63;4991096;28;20058;-30
2022/05/26 10:07:21;;;;;;;7.38;1.50;;;;;;;24.02;59.95;102056.47;4989547;28;20046;-34
2022/05/26 10:09:58;;;;;;;3.63;1.10;;;;;;;23.94;59.11;102050.94;4990562;28;20046;-29
2022/05/26 10:12:34;;;;;;;7.10;1.48;;;;;;;23.66;60.07;102051.69;4989435;28;20050;-29
2022/05/26 10:15:20;;;;;;;7.30;1.77;;;;;;;23.47;58.79;102050.63;4989202;28;20444;-30
2022/05/26 10:18:04;;;;;;;4.88;1.33;;;;;;;23.51;59.70;102058.13;4991129;28;20058;-30
2022/05/26 10:20:42;;;;;;;5.28;1.27;;;;;;;23.37;58.83;102054.81;4990916;28;20050;-30
2022/05/26 10:23:23;;;;;;;8.77;1.50;;;;;;;23.23;59.85;102051.50;4990167;28;20470;-34
2022/05/26 10:26:02;;;;;;;5.93;2.05;;;;;;;22.89;60.43;102050.78;4990292;28;20050;-31
2022/05/26 10:28:55;;;;;;;6.82;1.65;;;;;;;22.55;60.49;102040.63;4990033;28;20046;-31
2022/05/26 10:31:33;;;;;;;6.45;1.65;;;;;;;22.54;62.06;102030.41;4985666;28;20078;-33
2022/05/26 10:34:14;;;;;;;7.57;1.75;;;;;;;22.40;62.88;102040.44;4986707;28;20046;-30
2022/05/26 10:36:56;;;;;;;8.57;1.65;;;;;;;22.47;64.32;102040.69;4986033;28;20054;-35
2022/05/26 10:39:38;;;;;;;8.38;1.90;;;;;;;22.82;63.50;102047.66;4988414;28;20085;-35
2022/05/26 10:42:13;;;;;;;7.05;1.55;;;;;;;23.30;63.62;102055.41;4988597;28;20050;-31
2022/05/26 10:44:49;;;;;;;4.40;1.60;;;;;;;23.18;61.26;102051.75;4991453;28;20046;-31
2022/05/26 10:47:21;;;;;;;5.05;1.27;;;;;;;22.83;62.49;102055.03;4994030;28;20126;-31
2022/05/26 10:49:51;;;;;;;;;;;;;;;22.56;61.46;102047.97;4994277;28;20274;-36
2022/05/26 10:52:23;;;;;;;4.95;1.33;;;;;;;22.24;65.39;102043.13;4991477;28;19921;-37
2022/05/26 10:54:56;;;;;;;7.25;1.80;;;;;;;21.95;65.54;102052.56;4993379;28;20046;-30
2022/05/26 10:57:39;;;;;;;6.30;1.83;;;;;;;22.00;66.14;102041.81;4993539;28;20090;-29
2022/05/26 11:00:14;;;;;;;7.95;1.65;;;;;;;22.25;65.97;102045.59;4991665;28;20042;-41
2022/05/26 11:02:52;;;;;;;8.65;2.20;;;;;;;22.49;64.51;102046.88;4994156;28;20142;-28
2022/05/26 11:05:30;;;;;;;9.20;2.20;;;;;;;22.39;64.22;102045.28;4992396;28;20057;-28
2022/05/26 11:08:14;;;;;;;9.65;2.20;;;;;;;22.09;64.61;102050.28;4994080;28;20488;-28
2022/05/26 11:10:47;;;;;;;7.82;1.70;;;;;;;21.64;66.15;102039.59;4992593;28;20050;-29
2022/05/26 11:13:27;;;;;;;10.50;2.15;;;;;;;21.46;67.53;102055.09;4993843;28;20108;-29
2022/05/26 11:18:51;;;;;;;6.43;1.92;;;;;;;21.56;67.13;102057.56;4993534;28;20042;-29
2022/05/26 11:21:21;;;;;;;8.13;2.10;;;;;;;21.51;67.17;102054.91;4990835;28;20050;-30
2022/05/26 11:23:50;;;;;;;10.90;2.38;;;;;;;21.55;66.55;102047.38;4992829;28;20043;-29
2022/05/26 11:26:31;;;;;;;8.30;1.95;;;;;;;21.46;66.15;102040.91;4992375;28;20058;-30
2022/05/26 11:29:08;;;;;;;10.65;2.88;;;;;;;21.36;67.57;102049.84;4992960;28;20038;-28
2022/05/26 11:37:31;;;;;;;8.63;2.28;;;;;;;20.90;69.15;102045.88;4984822;28;20042;-29
2022/05/26 11:40:03;;;;;;;8.95;2.28;;;;;;;20.87;69.87;102057.06;4981696;28;20085;-29
2022/05/26 11:42:34;;;;;;;8.00;2.20;;;;;;;20.66;69.46;102061.81;4993779;28;20050;-30
2022/05/26 11:45:19;;;;;;;9.13;2.25;;;;;;;20.36;70.71;102061.72;4993303;28;20051;-34
2022/05/26 11:47:58;;;;;;;9.60;2.33;;;;;;;20.23;72.21;102072.03;4983523;28;20053;-39
2022/05/26 11:50:59;;;;;;;10.55;2.50;;;;;;;20.27;72.50;102064.53;4986396;28;20042;-31
2022/05/26 11:53:37;;;;;;;9.73;2.40;;;;;;;20.39;72.52;102051.69;4992426;28;20048;-31
2022/05/26 11:56:53;;;;;;;10.23;2.38;;;;;;;20.17;71.27;102053.56;4981901;28;20656;-29
2022/05/26 11:59:46;;;;;;;9.35;2.55;;;;;;;19.76;73.19;102056.91;4988302;28;20054;-29
2022/05/26 12:02:32;;;;;;;9.18;2.45;;;;;;;19.48;74.88;102058.34;4991178;28;20058;-28
2022/05/26 12:05:42;;;;;;;8.60;2.35;;;;;;;19.31;75.86;102061.97;4992833;28;20089;-37
2022/05/26 12:08:35;;;;;;;11.75;2.78;;;;;;;19.18;78.52;102060.13;4976514;28;20053;-29
2022/05/26 12:11:07;;;;;;;7.93;2.63;;;;;;;19.22;78.81;102069.59;4982755;28;20046;-29
2022/05/26 12:13:38;;;;;;;10.43;3.05;;;;;;;19.51;78.96;102071.88;4992294;28;20496;-32
2022/05/26 12:16:27;;;;;;;11.75;3.08;;;;;;;19.46;78.22;102075.66;4991464;28;20149;-34
2022/05/26 12:18:58;;;;;;;8.90;2.60;;;;;;;19.45;78.85;102078.81;4984403;28;20538;-30
2022/05/26 12:21:46;;;;;;;10.60;2.50;;;;;;;19.40;77.54;102070.47;4991418;28;20388;-29